createdAt,value
2018-03-23T00:02:15.750Z,10.30
2018-03-23T00:04:45.098Z,10.50
2018-03-23T00:07:14.886Z,8.67
2018-03-23T00:09:44.201Z,9.60
2018-03-23T00:12:13.792Z,9.27
2018-03-23T00:14:43.881Z,8.90
2018-03-23T00:17:13.228Z,9.47
2018-03-23T00:19:42.467Z,7.73
2018-03-23T00:22:11.740Z,8.00
2018-03-23T00:24:41.009Z,7.63
2018-03-23T00:27:10.237Z,8.37
2018-03-23T00:29:39.541Z,9.60
2018-03-23T00:32:08.983Z,9.70
2018-03-23T00:34:38.269Z,9.73
2018-03-23T00:37:07.555Z,9.17
2018-03-23T00:39:36.901Z,8.10
2018-03-23T00:42:06.960Z,8.90
2018-03-23T00:44:36.259Z,9.03
2018-03-23T00:47:05.512Z,7.60
2018-03-23T00:49:34.784Z,9.57
2018-03-23T00:52:04.128Z,9.90
2018-03-23T00:54:33.601Z,7.77
2018-03-23T00:57:02.907Z,8.60
2018-03-23T00:59:32.193Z,8.23
2018-03-23T01:02:01.456Z,8.13
2018-03-23T01:04:30.697Z,8.97
2018-03-23T01:07:00.742Z,8.70
2018-03-23T01:09:30.013Z,8.07
2018-03-23T01:11:59.410Z,8.07
2018-03-23T01:14:28.731Z,7.93
2018-03-23T01:16:57.985Z,9.40
2018-03-23T01:19:27.241Z,9.33
2018-03-23T01:21:56.685Z,9.33
2018-03-23T01:24:25.982Z,8.77
2018-03-23T01:26:55.300Z,9.90
2018-03-23T01:29:24.561Z,9.43
2018-03-23T01:31:54.613Z,8.87
2018-03-23T01:34:23.876Z,9.37
2018-03-23T01:36:53.177Z,7.60
2018-03-23T01:39:22.475Z,10.23
2018-03-23T01:41:53.643Z,9.20
2018-03-23T01:44:23.121Z,8.23
2018-03-23T01:46:53.193Z,8.43
2018-03-23T01:49:22.506Z,9.37
2018-03-23T01:51:51.755Z,11.50
2018-03-23T01:54:21.802Z,7.00
2018-03-23T01:56:51.073Z,7.40
2018-03-23T01:59:20.354Z,7.93
2018-03-23T02:01:49.659Z,8.30
2018-03-23T02:04:18.952Z,8.20
2018-03-23T02:06:48.193Z,8.20
2018-03-23T02:09:18.219Z,8.50
2018-03-23T02:11:47.455Z,7.17
2018-03-23T02:14:16.717Z,8.87
2018-03-23T02:16:45.995Z,9.40
2018-03-23T02:19:15.899Z,9.50
2018-03-23T02:21:45.316Z,8.60
2018-03-23T02:24:14.570Z,9.43
2018-03-23T02:26:44.037Z,10.20
2018-03-23T02:29:13.298Z,10.60
2018-03-23T02:31:42.578Z,10.10
2018-03-23T02:34:11.872Z,9.33
2018-03-23T02:36:41.122Z,7.80
2018-03-23T02:39:10.397Z,8.10
2018-03-23T02:41:39.655Z,8.80
2018-03-23T02:44:09.685Z,7.63
2018-03-23T02:46:38.969Z,8.83
2018-03-23T02:49:08.266Z,8.53
2018-03-23T02:51:37.577Z,9.43
2018-03-23T02:54:06.984Z,8.57
2018-03-23T02:56:37.001Z,10.47
2018-03-23T02:59:06.264Z,8.40
2018-03-23T03:01:36.345Z,9.97
2018-03-23T03:04:05.668Z,10.07
2018-03-23T03:06:34.918Z,8.67
2018-03-23T03:09:04.182Z,9.73
2018-03-23T03:11:34.434Z,10.67
2018-03-23T03:14:03.725Z,10.33
2018-03-23T03:16:33.037Z,9.97
2018-03-23T03:19:02.321Z,9.60
2018-03-23T03:21:31.595Z,9.40
2018-03-23T03:24:00.852Z,10.43
2018-03-23T03:26:30.142Z,9.40
2018-03-23T03:29:00.242Z,10.40
2018-03-23T03:31:29.495Z,10.60
2018-03-23T03:33:58.786Z,10.33
2018-03-23T03:36:28.179Z,9.10
2018-03-23T03:38:57.445Z,8.20
2018-03-23T03:41:26.778Z,8.43
2018-03-23T03:43:56.328Z,9.97
2018-03-23T03:46:25.613Z,9.80
2018-03-23T03:48:54.891Z,10.07
2018-03-23T03:51:24.932Z,11.30
2018-03-23T03:53:54.209Z,11.57
2018-03-23T03:56:23.483Z,10.97
2018-03-23T03:58:52.752Z,10.30
2018-03-23T04:01:22.049Z,10.47
2018-03-23T04:03:51.338Z,10.47
2018-03-23T04:06:20.770Z,12.03
2018-03-23T04:08:50.022Z,9.80
2018-03-23T04:11:19.278Z,12.13
2018-03-23T04:13:48.706Z,10.83
2018-03-23T04:16:17.989Z,13.53
2018-03-23T04:18:47.275Z,11.53
2018-03-23T04:21:16.546Z,11.97
2018-03-23T04:23:46.009Z,10.30
2018-03-23T04:26:15.292Z,11.50
2018-03-23T04:28:44.606Z,12.70
2018-03-23T04:31:14.439Z,10.80
2018-03-23T04:33:43.830Z,14.03
2018-03-23T04:36:13.160Z,12.03
2018-03-23T04:38:42.419Z,12.70
2018-03-23T04:41:11.813Z,12.37
2018-03-23T04:43:41.314Z,12.20
2018-03-23T04:46:10.734Z,13.00
2018-03-23T04:48:40.010Z,13.40
2018-03-23T04:51:09.269Z,12.77
2018-03-23T04:53:39.311Z,13.83
2018-03-23T04:56:08.556Z,11.27
2018-03-23T04:58:37.830Z,13.10
2018-03-23T05:01:07.265Z,11.60
2018-03-23T05:03:36.556Z,13.57
2018-03-23T05:06:06.704Z,11.50
2018-03-23T05:08:36.006Z,12.17
2018-03-23T05:11:06.046Z,10.40
2018-03-23T05:13:35.300Z,13.50
2018-03-23T05:16:04.570Z,11.67
2018-03-23T05:18:33.862Z,11.27
2018-03-23T05:21:03.269Z,10.93
2018-03-23T05:23:32.525Z,11.47
2018-03-23T05:26:01.803Z,11.67
2018-03-23T05:28:31.098Z,11.13
2018-03-23T05:31:00.396Z,9.87
2018-03-23T05:33:29.661Z,10.00
2018-03-23T05:35:58.968Z,11.87
2018-03-23T05:38:28.245Z,12.00
2018-03-23T05:40:58.269Z,9.60
2018-03-23T05:43:27.565Z,9.50
2018-03-23T05:45:56.804Z,10.00
2018-03-23T05:48:26.147Z,10.07
2018-03-23T05:50:55.404Z,9.97
2018-03-23T05:53:24.649Z,8.40
2018-03-23T05:55:54.041Z,10.67
2018-03-23T05:58:24.795Z,11.17
2018-03-23T06:00:54.070Z,11.03
2018-03-23T06:03:23.344Z,10.13
2018-03-23T06:05:52.621Z,10.17
2018-03-23T06:08:21.931Z,10.47
2018-03-23T06:10:51.257Z,10.73
2018-03-23T06:13:20.513Z,10.77
2018-03-23T06:15:49.753Z,9.90
2018-03-23T06:18:19.029Z,10.33
2018-03-23T06:20:48.298Z,10.60
2018-03-23T06:23:18.369Z,11.40
2018-03-23T06:25:47.631Z,10.07
2018-03-23T06:28:17.649Z,11.17
2018-03-23T06:30:46.923Z,11.13
2018-03-23T06:33:17.770Z,11.40
2018-03-23T06:35:47.042Z,11.23
2018-03-23T06:38:16.383Z,10.30
2018-03-23T06:40:46.443Z,11.17
2018-03-23T06:43:15.721Z,10.60
2018-03-23T06:45:45.113Z,11.50
2018-03-23T06:48:15.331Z,10.17
2018-03-23T06:50:44.614Z,14.83
2018-03-23T06:53:13.897Z,12.13
2018-03-23T06:55:43.214Z,15.37
2018-03-23T06:58:12.421Z,17.30
2018-03-23T07:00:41.662Z,14.90
2018-03-23T07:03:10.933Z,15.80
2018-03-23T07:05:40.202Z,17.60
2018-03-23T07:08:09.486Z,16.03
2018-03-23T07:10:38.758Z,16.67
2018-03-23T07:13:08.057Z,17.37
2018-03-23T07:15:37.476Z,16.90
2018-03-23T07:18:06.857Z,15.87
2018-03-23T07:20:36.089Z,16.60
2018-03-23T07:23:05.534Z,16.57
2018-03-23T07:25:34.813Z,16.70
2018-03-23T07:28:04.067Z,15.67
2018-03-23T07:30:33.354Z,18.13
2018-03-23T07:33:02.650Z,19.13
2018-03-23T07:35:31.920Z,15.40
2018-03-23T07:38:01.175Z,16.70
2018-03-23T07:40:30.486Z,17.37
2018-03-23T07:42:59.977Z,18.27
2018-03-23T07:45:29.365Z,16.23
2018-03-23T07:47:58.640Z,18.27
2018-03-23T07:50:27.893Z,16.30
2018-03-23T07:52:57.154Z,15.60
2018-03-23T07:55:26.407Z,24.83
2018-03-23T07:57:55.704Z,20.43
2018-03-23T08:00:25.042Z,23.60
2018-03-23T08:02:54.294Z,21.97
2018-03-23T08:05:23.546Z,22.40
2018-03-23T08:07:53.589Z,25.57
2018-03-23T08:10:23.615Z,20.50
2018-03-23T08:12:52.871Z,19.47
2018-03-23T08:15:22.125Z,19.13
2018-03-23T08:17:51.385Z,17.53
2018-03-23T08:20:20.712Z,18.10
2018-03-23T08:22:50.730Z,20.10
2018-03-23T08:25:20.007Z,17.77
2018-03-23T08:27:49.304Z,16.20
2018-03-23T08:30:18.631Z,17.27
2018-03-23T08:32:47.850Z,17.00
2018-03-23T08:35:17.125Z,16.00
2018-03-23T08:37:46.438Z,17.63
2018-03-23T08:40:16.467Z,18.27
2018-03-23T08:42:45.754Z,17.30
2018-03-23T08:45:15.052Z,16.30
2018-03-23T08:47:44.396Z,16.97
2018-03-23T08:50:13.717Z,17.07
2018-03-23T08:52:43.041Z,20.17
2018-03-23T08:55:12.448Z,16.30
2018-03-23T08:57:41.706Z,17.50
2018-03-23T09:00:10.988Z,15.33
2018-03-23T09:02:40.301Z,16.17
2018-03-23T09:05:10.231Z,17.87
2018-03-23T09:07:40.510Z,16.47
2018-03-23T09:10:10.554Z,15.00
2018-03-23T09:12:39.825Z,16.30
2018-03-23T09:15:09.084Z,16.50
2018-03-23T09:17:38.400Z,17.83
2018-03-23T09:20:07.637Z,15.27
2018-03-23T09:22:37.113Z,17.80
2018-03-23T09:25:06.398Z,15.47
2018-03-23T09:27:35.907Z,15.27
2018-03-23T09:30:05.574Z,11.87
2018-03-23T09:32:34.825Z,16.87
2018-03-23T09:35:04.097Z,13.37
2018-03-23T09:37:33.365Z,14.00
2018-03-23T09:40:02.662Z,14.00
2018-03-23T09:42:31.950Z,12.83
2018-03-23T09:45:01.204Z,12.27
2018-03-23T09:47:30.480Z,12.60
2018-03-23T09:49:59.929Z,12.53
2018-03-23T09:52:29.219Z,14.33
2018-03-23T09:54:58.737Z,14.63
2018-03-23T09:57:28.051Z,13.87
2018-03-23T09:59:57.334Z,14.07
2018-03-23T10:02:26.593Z,15.77
2018-03-23T10:04:56.040Z,13.90
2018-03-23T10:07:25.317Z,13.57
2018-03-23T10:09:54.718Z,13.40
2018-03-23T10:12:24.182Z,14.80
2018-03-23T10:14:53.532Z,13.80
2018-03-23T10:17:22.814Z,13.33
2018-03-23T10:19:52.088Z,13.63
2018-03-23T10:22:22.122Z,11.23
2018-03-23T10:24:51.430Z,13.13
2018-03-23T10:27:20.730Z,11.87
2018-03-23T10:29:50.000Z,11.20
2018-03-23T10:32:19.294Z,11.67
2018-03-23T10:34:48.547Z,10.10
2018-03-23T10:37:17.862Z,10.97
2018-03-23T10:39:47.118Z,8.80
2018-03-23T10:42:17.171Z,9.13
2018-03-23T10:44:46.449Z,9.17
2018-03-23T10:47:15.742Z,9.40
2018-03-23T10:49:45.034Z,9.10
2018-03-23T10:52:14.326Z,9.80
2018-03-23T10:54:43.714Z,9.30
2018-03-23T10:57:12.980Z,10.03
2018-03-23T10:59:42.275Z,8.83
2018-03-23T11:05:06.551Z,10.20
2018-03-23T11:07:35.800Z,9.40
2018-03-23T11:10:05.068Z,9.07
2018-03-23T11:12:34.321Z,8.63
2018-03-23T11:15:03.978Z,9.50
2018-03-23T11:17:33.385Z,8.73
2018-03-23T11:20:04.528Z,8.40
2018-03-23T11:22:33.850Z,8.90
2018-03-23T11:25:03.117Z,9.10
2018-03-23T11:27:32.414Z,7.07
2018-03-23T11:30:01.699Z,7.43
2018-03-23T11:32:30.962Z,7.77
2018-03-23T11:35:00.234Z,7.43
2018-03-23T11:37:30.291Z,8.73
2018-03-23T11:39:59.551Z,8.27
2018-03-23T11:42:28.839Z,8.90
2018-03-23T11:44:58.866Z,9.47
2018-03-23T11:47:28.910Z,9.20
2018-03-23T11:49:58.165Z,9.70
2018-03-23T11:52:27.489Z,10.00
2018-03-23T11:54:56.763Z,10.23
2018-03-23T11:57:27.679Z,11.50
2018-03-23T11:59:56.966Z,11.03
2018-03-23T12:02:26.332Z,9.87
2018-03-23T12:04:55.598Z,11.00
2018-03-23T12:07:24.872Z,10.47
2018-03-23T12:09:54.320Z,11.93
2018-03-23T12:12:23.735Z,13.43
2018-03-23T12:14:53.082Z,11.57
2018-03-23T12:17:22.344Z,9.97
2018-03-23T12:19:51.665Z,11.77
2018-03-23T12:22:20.926Z,11.47
2018-03-23T12:24:51.753Z,10.23
2018-03-23T12:27:21.109Z,12.43
2018-03-23T12:29:51.211Z,9.90
2018-03-23T12:32:20.531Z,11.10
2018-03-23T12:34:50.090Z,11.87
2018-03-23T12:37:19.295Z,12.60
2018-03-23T12:39:50.179Z,12.27
2018-03-23T12:42:20.254Z,14.17
2018-03-23T12:44:50.317Z,12.77
2018-03-23T12:47:19.792Z,14.37
2018-03-23T12:49:49.102Z,11.30
2018-03-23T12:52:18.385Z,13.80
2018-03-23T12:54:47.660Z,13.30
2018-03-23T12:57:17.015Z,13.63
2018-03-23T12:59:46.309Z,14.03
2018-03-23T13:02:15.544Z,12.37
2018-03-23T13:04:44.800Z,12.83
2018-03-23T13:07:14.263Z,12.93
2018-03-23T13:09:43.550Z,14.00
2018-03-23T13:12:12.831Z,15.90
2018-03-23T13:14:42.125Z,12.00
2018-03-23T13:17:11.367Z,12.80
2018-03-23T13:19:40.618Z,13.03
2018-03-23T13:22:10.690Z,13.73
2018-03-23T13:24:39.967Z,11.87
2018-03-23T13:27:09.386Z,12.43
2018-03-23T13:29:38.651Z,12.13
2018-03-23T13:32:08.704Z,11.83
2018-03-23T13:34:38.058Z,12.10
2018-03-23T13:37:07.418Z,11.40
2018-03-23T13:39:36.726Z,12.00
2018-03-23T13:42:05.988Z,13.33
2018-03-23T13:44:35.263Z,12.53
2018-03-23T13:47:04.517Z,11.60
2018-03-23T13:49:33.802Z,12.10
2018-03-23T13:52:03.196Z,13.50
2018-03-23T13:54:32.762Z,12.80
2018-03-23T13:57:02.028Z,11.60
2018-03-23T13:59:36.677Z,11.33
2018-03-23T14:02:05.944Z,11.80
2018-03-23T14:04:35.184Z,12.47
2018-03-23T14:07:04.444Z,11.70
2018-03-23T14:09:33.759Z,11.43
2018-03-23T14:12:03.087Z,13.97
2018-03-23T14:14:32.521Z,12.67
2018-03-23T14:17:01.794Z,11.33
2018-03-23T14:19:31.050Z,13.10
2018-03-23T14:22:00.336Z,44.73
2018-03-23T14:24:33.421Z,18.23
2018-03-23T14:27:02.711Z,13.20
2018-03-23T14:29:32.025Z,18.40
2018-03-23T14:32:02.821Z,36.50
2018-03-23T14:34:32.090Z,33.27
2018-03-23T14:37:01.340Z,23.10
2018-03-23T14:39:30.649Z,19.90
2018-03-23T14:41:59.924Z,17.63
2018-03-23T14:44:29.193Z,14.10
2018-03-23T14:46:58.464Z,13.93
2018-03-23T14:49:27.754Z,12.80
2018-03-23T14:51:57.009Z,14.00
2018-03-23T14:54:26.282Z,13.23
2018-03-23T14:56:55.558Z,14.40
2018-03-23T14:59:24.833Z,13.83
2018-03-23T15:01:54.337Z,12.90
2018-03-23T15:04:23.679Z,12.40
2018-03-23T15:06:52.988Z,13.70
2018-03-23T15:09:23.094Z,13.10
2018-03-23T15:11:52.406Z,12.90
2018-03-23T15:14:21.889Z,11.87
2018-03-23T15:16:52.114Z,12.93
2018-03-23T15:19:21.362Z,14.03
2018-03-23T15:21:50.649Z,12.83
2018-03-23T15:24:20.076Z,11.97
2018-03-23T15:26:49.533Z,12.73
2018-03-23T15:29:18.956Z,11.20
2018-03-23T15:31:48.243Z,12.30
2018-03-23T15:34:17.469Z,11.63
2018-03-23T15:36:46.747Z,11.90
2018-03-23T15:39:16.798Z,10.80
2018-03-23T15:41:46.272Z,11.33
2018-03-23T15:44:15.539Z,10.07
2018-03-23T15:46:45.077Z,12.30
2018-03-23T15:49:14.496Z,12.30
2018-03-23T15:51:43.750Z,12.10
2018-03-23T15:54:13.081Z,12.13
2018-03-23T15:56:43.308Z,11.00
2018-03-23T15:59:12.595Z,13.47
2018-03-23T16:01:41.857Z,11.87
2018-03-23T16:04:11.136Z,12.30
2018-03-23T16:06:40.606Z,12.17
2018-03-23T16:09:10.650Z,11.07
2018-03-23T16:11:39.902Z,12.33
2018-03-23T16:14:09.225Z,12.67
2018-03-23T16:16:38.514Z,12.73
2018-03-23T16:19:07.811Z,12.87
2018-03-23T16:21:37.062Z,12.10
2018-03-23T16:24:06.544Z,11.73
2018-03-23T16:26:35.800Z,11.93
2018-03-23T16:29:05.062Z,11.70
2018-03-23T16:31:34.346Z,14.33
2018-03-23T16:34:03.689Z,14.63
2018-03-23T16:36:33.170Z,14.00
2018-03-23T16:39:02.583Z,11.20
2018-03-23T16:41:31.896Z,11.10
2018-03-23T16:44:01.486Z,10.37
2018-03-23T16:46:30.852Z,11.80
2018-03-23T16:49:00.155Z,17.57
2018-03-23T16:51:29.414Z,13.40
2018-03-23T16:53:59.153Z,12.70
2018-03-23T16:56:28.473Z,10.33
2018-03-23T16:58:58.129Z,11.30
2018-03-23T17:01:27.434Z,10.27
2018-03-23T17:03:56.749Z,12.67
2018-03-23T17:06:26.000Z,10.07
2018-03-23T17:08:57.020Z,9.80
2018-03-23T17:11:26.495Z,11.20
2018-03-23T17:13:56.933Z,11.10
2018-03-23T17:16:26.498Z,9.83
2018-03-23T17:18:55.776Z,7.80
2018-03-23T17:21:25.393Z,9.50
2018-03-23T17:23:54.673Z,9.20
2018-03-23T17:26:24.040Z,9.90
2018-03-23T17:28:53.423Z,8.87
2018-03-23T17:31:23.543Z,8.93
2018-03-23T17:33:52.842Z,8.23
2018-03-23T17:36:22.859Z,7.57
2018-03-23T17:38:52.134Z,8.47
2018-03-23T17:41:21.380Z,8.80
2018-03-23T17:43:50.698Z,7.87
2018-03-23T17:46:21.686Z,21.97
2018-03-23T17:48:50.977Z,17.47
2018-03-23T17:51:20.226Z,13.13
2018-03-23T17:53:49.488Z,10.33
2018-03-23T17:56:19.707Z,9.63
2018-03-23T17:58:48.945Z,13.87
2018-03-23T18:01:18.296Z,9.40
2018-03-23T18:03:47.692Z,9.07
2018-03-23T18:06:16.975Z,8.50
2018-03-23T18:08:46.202Z,7.13
2018-03-23T18:11:15.490Z,8.10
2018-03-23T18:13:44.743Z,9.13
2018-03-23T18:16:14.014Z,9.70
2018-03-23T18:18:43.529Z,8.77
2018-03-23T18:21:12.764Z,8.17
2018-03-23T18:23:42.022Z,9.10
2018-03-23T18:26:11.482Z,10.20
2018-03-23T18:28:41.017Z,7.80
2018-03-23T18:31:11.308Z,8.70
2018-03-23T18:33:40.573Z,9.17
2018-03-23T18:36:10.021Z,8.30
2018-03-23T18:38:39.268Z,8.13
2018-03-23T18:41:08.536Z,7.70
2018-03-23T18:43:37.782Z,7.50
2018-03-23T18:46:07.048Z,8.90
2018-03-23T18:48:36.298Z,7.87
2018-03-23T18:51:05.563Z,7.63
2018-03-23T18:53:34.914Z,7.93
2018-03-23T18:56:04.147Z,8.57
2018-03-23T18:58:33.397Z,8.60
2018-03-23T19:01:02.728Z,10.00
2018-03-23T19:03:32.153Z,6.57
2018-03-23T19:06:02.315Z,7.73
2018-03-23T19:08:31.648Z,6.83
2018-03-23T19:11:00.889Z,7.70
2018-03-23T19:13:30.275Z,10.90
2018-03-23T19:15:59.538Z,7.47
2018-03-23T19:18:28.782Z,6.80
2018-03-23T19:20:58.087Z,7.37
2018-03-23T19:23:27.422Z,7.70
2018-03-23T19:25:56.693Z,5.87
2018-03-23T19:28:26.014Z,6.93
2018-03-23T19:30:55.372Z,6.67
2018-03-23T19:33:24.626Z,6.37
2018-03-23T19:35:54.029Z,6.83
2018-03-23T19:38:23.284Z,5.80
2018-03-23T19:40:52.573Z,6.50
2018-03-23T19:43:22.097Z,7.40
2018-03-23T19:45:51.734Z,6.40
2018-03-23T19:48:21.139Z,6.57
2018-03-23T19:50:50.603Z,6.60
2018-03-23T19:53:20.635Z,6.23
2018-03-23T19:55:49.919Z,7.23
2018-03-23T19:58:19.341Z,6.10
2018-03-23T20:00:48.575Z,6.70
2018-03-23T20:03:18.034Z,6.20
2018-03-23T20:05:47.271Z,7.77
2018-03-23T20:08:16.543Z,7.00
2018-03-23T20:10:45.797Z,8.30
2018-03-23T20:13:15.633Z,7.57
2018-03-23T20:15:45.246Z,7.50
2018-03-23T20:18:19.894Z,6.47
2018-03-23T20:20:55.309Z,8.57
2018-03-23T20:23:24.553Z,6.10
2018-03-23T20:25:53.833Z,6.13
2018-03-23T20:28:28.509Z,6.47
2018-03-23T20:30:57.786Z,6.67
2018-03-23T20:33:27.029Z,7.53
2018-03-23T20:35:56.345Z,7.80
2018-03-23T20:38:25.605Z,7.00
2018-03-23T20:40:55.663Z,6.90
2018-03-23T20:43:25.021Z,6.60
2018-03-23T20:45:54.269Z,8.17
2018-03-23T20:48:23.521Z,7.00
2018-03-23T20:50:52.765Z,7.30
2018-03-23T20:53:22.029Z,7.30
2018-03-23T20:55:51.310Z,6.33
2018-03-23T20:58:21.333Z,8.20
2018-03-23T21:00:50.598Z,7.70
2018-03-23T21:03:21.401Z,7.10
2018-03-23T21:05:50.684Z,6.47
2018-03-23T21:08:19.950Z,6.87
2018-03-23T21:10:49.192Z,7.17
2018-03-23T21:13:18.704Z,6.33
2018-03-23T21:15:48.005Z,6.70
2018-03-23T21:18:17.879Z,7.43
2018-03-23T21:20:47.127Z,6.20
2018-03-23T21:23:16.424Z,5.80
2018-03-23T21:25:45.657Z,6.30
2018-03-23T21:28:14.950Z,6.67
2018-03-23T21:30:44.206Z,5.00
2018-03-23T21:33:13.494Z,6.93
2018-03-23T21:35:43.521Z,6.23
2018-03-23T21:38:12.791Z,6.30
2018-03-23T21:40:42.119Z,6.77
2018-03-23T21:43:11.359Z,5.23
2018-03-23T21:45:40.684Z,6.70
2018-03-23T21:48:10.046Z,5.90
2018-03-23T21:50:39.302Z,6.13
2018-03-23T21:53:10.078Z,6.50
2018-03-23T21:55:39.452Z,5.60
2018-03-23T21:58:08.730Z,6.57
2018-03-23T22:00:37.982Z,6.47
2018-03-23T22:03:07.272Z,7.60
2018-03-23T22:05:36.651Z,7.17
2018-03-23T22:08:05.981Z,6.30
2018-03-23T22:10:35.612Z,5.50
2018-03-23T22:13:04.886Z,6.50
2018-03-23T22:15:34.148Z,7.83
2018-03-23T22:18:03.926Z,7.07
2018-03-23T22:20:33.241Z,5.53
2018-03-23T22:23:02.494Z,7.80
2018-03-23T22:25:31.845Z,6.03
2018-03-23T22:28:01.137Z,7.87
2018-03-23T22:30:30.452Z,7.07
2018-03-23T22:32:59.738Z,7.50
2018-03-23T22:35:28.993Z,6.47
2018-03-23T22:37:58.217Z,6.97
2018-03-23T22:40:27.481Z,6.83
2018-03-23T22:42:56.833Z,6.67
2018-03-23T22:45:26.082Z,7.27
2018-03-23T22:47:55.557Z,7.90
2018-03-23T22:50:24.997Z,5.97
2018-03-23T22:52:55.746Z,7.53
2018-03-23T22:55:26.355Z,6.53
2018-03-23T22:57:55.773Z,7.47
2018-03-23T23:00:25.779Z,7.53
2018-03-23T23:02:55.030Z,6.30
2018-03-23T23:05:24.295Z,6.27
2018-03-23T23:07:53.557Z,7.67
2018-03-23T23:10:24.762Z,7.20
2018-03-23T23:12:54.023Z,6.63
2018-03-23T23:15:23.425Z,7.43
2018-03-23T23:17:52.862Z,8.20
2018-03-23T23:20:22.235Z,8.80
2018-03-23T23:22:53.013Z,8.70
2018-03-23T23:25:22.587Z,7.20
2018-03-23T23:27:52.266Z,7.73
2018-03-23T23:30:23.443Z,7.80
2018-03-23T23:32:52.708Z,7.60
2018-03-23T23:35:21.935Z,8.20
2018-03-23T23:37:51.197Z,8.20
2018-03-23T23:40:20.487Z,8.33
2018-03-23T23:42:49.883Z,7.40
2018-03-23T23:45:19.881Z,7.73
2018-03-23T23:47:49.125Z,8.40
2018-03-23T23:50:18.383Z,7.37
2018-03-23T23:52:47.811Z,7.97
2018-03-23T23:55:17.053Z,7.83
2018-03-23T23:57:46.301Z,6.90
